Time;durP1;ratioP1;P1;durP2;ratioP2;P2;SDS_P1;SDS_P2;PMS_P1;PMS_P2;Temp;Humidity;BMP_temperature;BMP_pressure;BME280_temperature;BME280_humidity;BME280_pressure;Samples;Min_cycle;Max_cycle;Signal;HPM_P1;HPM_P2
2023/04/07 00:01:07;;;;;;;62.05;49.58;;;29.60;72.00;;;;;;1938122;73;21124;-74
2023/04/07 00:03:40;;;;;;;60.17;50.20;;;29.60;71.40;;;;;;1924316;73;21186;-74
2023/04/07 00:06:15;;;;;;;70.37;52.73;;;29.60;71.30;;;;;;1926840;73;21530;-74
2023/04/07 00:08:46;;;;;;;69.80;54.20;;;29.50;71.60;;;;;;1877816;76;21079;-73
2023/04/07 00:11:17;;;;;;;65.67;53.65;;;29.50;72.30;;;;;;1914877;74;21599;-73
2023/04/07 00:13:48;;;;;;;73.28;54.05;;;29.40;72.40;;;;;;1901818;73;21170;-73
2023/04/07 00:16:20;;;;;;;68.72;55.08;;;29.40;72.90;;;;;;1908160;73;21127;-72
2023/04/07 00:18:51;;;;;;;64.32;52.48;;;29.40;72.80;;;;;;1905827;73;22048;-75
2023/04/07 00:21:23;;;;;;;66.97;53.78;;;29.40;73.20;;;;;;1927794;73;21648;-74
2023/04/07 00:23:54;;;;;;;66.25;53.98;;;29.40;73.10;;;;;;1914670;74;21656;-72
2023/04/07 00:26:30;;;;;;;63.50;52.58;;;29.40;72.60;;;;;;1939763;73;21200;-73
2023/04/07 00:28:58;;;;;;;67.55;53.33;;;29.40;72.00;;;;;;1939765;73;21195;-74
2023/04/07 00:31:29;;;;;;;69.17;53.05;;;29.50;71.40;;;;;;1940303;73;21527;-73
2023/04/07 00:34:00;;;;;;;69.03;53.58;;;29.50;70.60;;;;;;1877615;76;21143;-73
2023/04/07 00:36:32;;;;;;;70.37;52.17;;;29.50;70.40;;;;;;1927724;73;21417;-73
2023/04/07 00:39:03;;;;;;;62.17;51.05;;;29.60;70.60;;;;;;1908309;73;21159;-73
2023/04/07 00:41:35;;;;;;;69.15;53.35;;;29.60;70.20;;;;;;1917415;73;21131;-74
2023/04/07 00:44:06;;;;;;;65.25;49.63;;;29.70;70.50;;;;;;1919594;73;21184;-72
2023/04/07 00:46:38;;;;;;;63.05;52.33;;;29.80;69.40;;;;;;1917430;73;21525;-73
2023/04/07 00:49:09;;;;;;;63.73;53.40;;;29.80;70.00;;;;;;1920413;73;21546;-73
2023/04/07 00:51:40;;;;;;;64.15;52.93;;;29.90;69.50;;;;;;1918127;74;21146;-73
2023/04/07 00:54:11;;;;;;;67.03;53.38;;;29.90;69.90;;;;;;1879013;75;21115;-73
2023/04/07 00:56:43;;;;;;;64.47;52.95;;;29.90;69.60;;;;;;1938050;73;21266;-73
2023/04/07 01:02:38;;;;;;;65.35;51.02;;;30.10;69.60;;;;;;1952909;72;21270;-73
2023/04/07 01:08:22;;;;;;;70.97;50.70;;;30.20;69.00;;;;;;1977729;72;21209;-74
2023/04/07 01:10:58;;;;;;;61.75;49.35;;;30.30;67.90;;;;;;1975257;72;21663;-74
2023/04/07 01:13:38;;;;;;;67.22;50.67;;;30.40;66.90;;;;;;1945431;71;21478;-70
2023/04/07 01:16:12;;;;;;;62.73;47.98;;;30.50;66.80;;;;;;1984385;72;21127;-70
2023/04/07 01:18:45;;;;;;;62.78;49.58;;;30.60;66.00;;;;;;1989038;72;21224;-72
2023/04/07 01:21:19;;;;;;;67.70;50.52;;;30.60;65.50;;;;;;1970904;72;21083;-71
2023/04/07 01:24:04;;;;;;;76.12;51.88;;;30.70;65.80;;;;;;1969866;72;21177;-70
2023/04/07 01:26:36;;;;;;;61.05;47.98;;;30.70;64.70;;;;;;1930756;72;21145;-70
2023/04/07 01:29:30;;;;;;;56.23;49.95;;;30.80;63.30;;;;;;1971569;72;21651;-83
2023/04/07 01:32:02;;;;;;;55.55;48.78;;;30.70;64.30;;;;;;1924640;73;21197;-85
2023/04/07 01:34:35;;;;;;;57.38;48.38;;;30.80;64.00;;;;;;1899811;74;21146;-84
2023/04/07 01:37:06;;;;;;;60.67;48.52;;;30.80;63.70;;;;;;1927656;72;21071;-84
2023/04/07 01:39:39;;;;;;;62.95;49.65;;;30.80;63.80;;;;;;1895819;74;21212;-85
2023/04/07 01:42:10;;;;;;;59.23;49.75;;;30.90;63.70;;;;;;1916461;74;21133;-84
2023/04/07 01:44:42;;;;;;;62.75;51.02;;;31.00;61.90;;;;;;1923990;72;21229;-83
2023/04/07 01:47:15;;;;;;;61.15;49.45;;;31.10;63.00;;;;;;1873831;74;21448;-84
2023/04/07 01:49:47;;;;;;;59.93;50.10;;;31.10;63.00;;;;;;1940694;73;21205;-87
2023/04/07 01:52:19;;;;;;;56.18;48.63;;;31.30;61.80;;;;;;1888342;74;21048;-85
2023/04/07 01:54:50;;;;;;;63.48;50.85;;;31.30;60.80;;;;;;1892663;74;21085;-85
2023/04/07 01:57:21;;;;;;;65.83;49.23;;;31.40;60.80;;;;;;1920335;73;21174;-83
2023/04/07 01:59:53;;;;;;;60.85;49.80;;;31.40;61.10;;;;;;1883476;75;21095;-85
2023/04/07 02:02:24;;;;;;;58.20;49.70;;;31.50;60.50;;;;;;1911637;74;21128;-85
2023/04/07 02:05:02;;;;;;;136.15;55.28;;;31.60;60.40;;;;;;1929450;72;21149;-86
2023/04/07 02:07:50;;;;;;;66.12;53.33;;;31.70;60.00;;;;;;1929075;73;21130;-85
2023/04/07 02:10:24;;;;;;;67.78;49.50;;;31.70;59.60;;;;;;1930616;73;21141;-85
2023/04/07 02:12:55;;;;;;;58.85;48.33;;;31.80;59.10;;;;;;1935369;73;21114;-85
2023/04/07 02:15:28;;;;;;;69.55;48.40;;;31.90;58.80;;;;;;1897453;74;21087;-87
2023/04/07 02:18:00;;;;;;;67.45;50.38;;;31.90;58.70;;;;;;1919335;74;21182;-85
2023/04/07 02:20:32;;;;;;;64.27;48.52;;;32.00;58.40;;;;;;1898699;74;21130;-86
2023/04/07 02:23:03;;;;;;;55.12;48.30;;;32.00;57.60;;;;;;1951291;72;21051;-85
2023/04/07 02:25:36;;;;;;;64.17;50.12;;;32.10;58.20;;;;;;1960701;71;21168;-86
2023/04/07 02:28:07;;;;;;;59.93;49.03;;;32.20;58.00;;;;;;1973830;71;21108;-83
2023/04/07 02:30:38;;;;;;;61.13;48.78;;;32.20;57.70;;;;;;1979650;72;21115;-84
2023/04/07 02:33:09;;;;;;;55.33;49.48;;;32.40;57.60;;;;;;1966020;72;21030;-85
2023/04/07 02:35:40;;;;;;;57.10;50.43;;;32.40;56.90;;;;;;1971783;71;21129;-87
2023/04/07 02:38:11;;;;;;;60.00;49.65;;;32.50;56.50;;;;;;1972575;72;21067;-84
2023/04/07 02:40:42;;;;;;;59.05;49.00;;;32.60;56.20;;;;;;1959746;72;21063;-86
2023/04/07 02:43:14;;;;;;;63.33;52.15;;;32.70;56.40;;;;;;1959632;72;21197;-86
2023/04/07 02:45:45;;;;;;;60.05;50.15;;;32.70;56.40;;;;;;1966612;72;21224;-85
2023/04/07 02:48:16;;;;;;;58.48;51.18;;;32.80;56.20;;;;;;1961720;72;21148;-86
2023/04/07 02:50:47;;;;;;;60.75;53.10;;;32.80;56.20;;;;;;1964312;72;21111;-86
2023/04/07 02:53:18;;;;;;;63.42;52.73;;;32.90;55.40;;;;;;1961644;72;21183;-85
2023/04/07 02:55:49;;;;;;;61.28;50.70;;;32.90;55.60;;;;;;1953361;72;21140;-86
2023/04/07 02:58:20;;;;;;;58.13;49.70;;;32.90;55.80;;;;;;1966963;72;21162;-84
2023/04/07 03:00:51;;;;;;;58.00;51.65;;;33.00;56.00;;;;;;1963295;72;21134;-85
2023/04/07 03:03:22;;;;;;;57.05;50.45;;;33.00;55.80;;;;;;1961490;73;21111;-84
2023/04/07 03:05:54;;;;;;;60.03;50.33;;;33.10;56.20;;;;;;1923408;73;21203;-86
2023/04/07 03:08:25;;;;;;;61.88;50.05;;;33.20;57.80;;;;;;1887419;76;21143;-85
2023/04/07 03:10:56;;;;;;;57.83;49.27;;;33.30;57.90;;;;;;1922645;73;21121;-84
2023/04/07 03:13:28;;;;;;;58.78;50.33;;;33.40;57.60;;;;;;1938312;73;21068;-84
2023/04/07 03:15:59;;;;;;;55.75;49.70;;;33.40;57.50;;;;;;1894069;74;21619;-85
2023/04/07 03:18:30;;;;;;;57.45;51.20;;;33.40;57.60;;;;;;1888286;74;21124;-84
2023/04/07 03:21:01;;;;;;;58.15;49.45;;;35.50;59.70;;;;;;1900296;74;21560;-83
2023/04/07 03:23:33;;;;;;;63.33;51.08;;;33.60;57.80;;;;;;1937180;72;21263;-83
2023/04/07 03:26:04;;;;;;;64.10;50.55;;;33.60;57.80;;;;;;1925373;73;21445;-85
2023/04/07 03:28:35;;;;;;;57.65;51.45;;;33.70;57.50;;;;;;1937837;73;21587;-85
2023/04/07 03:31:23;;;;;;;63.40;54.20;;;33.80;57.20;;;;;;1931625;73;21160;-86
2023/04/07 03:33:54;;;;;;;66.00;55.17;;;33.80;57.60;;;;;;1941403;72;21136;-85
2023/04/07 03:36:26;;;;;;;65.78;54.93;;;33.90;57.30;;;;;;1945037;73;21158;-83
2023/04/07 03:38:58;;;;;;;61.33;52.48;;;34.00;57.10;;;;;;1919356;74;21578;-86
2023/04/07 03:41:30;;;;;;;63.35;52.75;;;34.10;56.90;;;;;;1918984;74;21172;-86
2023/04/07 03:44:01;;;;;;;62.03;53.85;;;34.20;57.00;;;;;;1929583;73;21273;-85
2023/04/07 03:46:32;;;;;;;64.47;54.93;;;34.30;56.60;;;;;;1937536;73;21061;-84
2023/04/07 03:49:03;;;;;;;68.07;51.92;;;34.40;56.20;;;;;;1931517;73;21128;-86
2023/04/07 03:51:34;;;;;;;58.15;51.15;;;34.40;55.90;;;;;;1932106;73;21197;-85
2023/04/07 03:54:06;;;;;;;65.67;54.88;;;34.50;55.60;;;;;;1939644;73;21592;-85
2023/04/07 03:56:37;;;;;;;67.22;57.83;;;34.60;55.40;;;;;;1943511;73;21102;-85
2023/04/07 03:59:08;;;;;;;58.25;51.70;;;34.60;55.30;;;;;;1933917;73;21083;-87
2023/04/07 04:01:39;;;;;;;70.47;62.00;;;34.70;55.00;;;;;;1924655;73;21107;-86
2023/04/07 04:04:10;;;;;;;62.98;55.95;;;34.70;55.50;;;;;;1923842;74;21134;-86
2023/04/07 04:06:43;;;;;;;70.42;57.95;;;34.70;56.00;;;;;;1923387;74;21280;-85
2023/04/07 04:09:14;;;;;;;66.28;58.13;;;34.70;56.60;;;;;;1933132;73;21205;-86
2023/04/07 04:11:45;;;;;;;73.15;65.20;;;34.60;56.40;;;;;;1930998;73;21135;-88
2023/04/07 04:14:16;;;;;;;59.58;53.10;;;34.50;57.10;;;;;;1933093;73;21113;-85
2023/04/07 04:16:47;;;;;;;61.60;53.83;;;34.50;57.30;;;;;;1959966;71;21388;-86
2023/04/07 04:19:21;;;;;;;61.53;54.88;;;34.40;57.30;;;;;;1980531;71;21618;-86
2023/04/07 04:21:52;;;;;;;57.83;51.30;;;34.40;57.30;;;;;;1964234;72;21121;-85
2023/04/07 04:24:23;;;;;;;61.85;53.05;;;34.40;57.60;;;;;;1960136;72;21118;-87
2023/04/07 04:26:55;;;;;;;60.08;53.58;;;34.40;57.70;;;;;;1966033;72;21157;-85
2023/04/07 04:29:29;;;;;;;59.20;53.02;;;34.30;57.50;;;;;;1961607;72;21128;-87
2023/04/07 04:32:01;;;;;;;59.98;51.83;;;34.30;57.50;;;;;;1969264;72;21128;-86
2023/04/07 04:34:33;;;;;;;57.83;50.78;;;34.20;57.50;;;;;;1967503;72;21673;-87
2023/04/07 04:37:04;;;;;;;60.17;52.23;;;34.20;57.60;;;;;;1973572;72;21125;-86
2023/04/07 04:39:39;;;;;;;58.70;52.25;;;34.20;57.70;;;;;;1972001;72;21160;-87
2023/04/07 04:42:10;;;;;;;57.43;51.25;;;34.20;57.70;;;;;;1966114;72;21170;-86
2023/04/07 04:44:41;;;;;;;59.77;52.27;;;34.20;57.80;;;;;;1977163;72;21165;-85
2023/04/07 04:47:12;;;;;;;58.58;52.40;;;34.20;57.80;;;;;;1978617;72;21221;-86
2023/04/07 04:49:46;;;;;;;58.23;51.77;;;34.20;57.70;;;;;;1968402;72;21182;-88
2023/04/07 04:52:17;;;;;;;58.70;51.85;;;34.30;57.40;;;;;;1972825;72;21081;-86
2023/04/07 04:55:08;;;;;;;58.98;51.23;;;34.30;57.20;;;;;;1967890;72;21107;-87
2023/04/07 04:57:54;;;;;;;66.35;51.65;;;34.30;57.10;;;;;;1958483;72;21314;-88
2023/04/07 05:00:38;;;;;;;59.93;51.68;;;34.30;57.00;;;;;;1959971;72;21151;-86
2023/04/07 05:03:09;;;;;;;59.70;53.23;;;34.40;57.50;;;;;;1933145;74;21137;-87
2023/04/07 05:05:41;;;;;;;60.48;53.65;;;34.40;56.70;;;;;;1914297;73;21132;-87
2023/04/07 05:08:12;;;;;;;59.80;49.85;;;34.40;55.60;;;;;;1939342;73;21601;-86
2023/04/07 05:10:43;;;;;;;58.48;51.83;;;34.50;56.70;;;;;;1932238;73;21114;-87
2023/04/07 05:13:16;;;;;;;61.98;51.55;;;34.50;55.70;;;;;;1936167;73;21239;-87
2023/04/07 05:15:47;;;;;;;60.55;53.92;;;34.50;55.80;;;;;;1935477;73;21094;-88
2023/04/07 05:18:18;;;;;;;59.00;52.65;;;34.50;55.80;;;;;;1932006;73;21141;-88
2023/04/07 05:20:50;;;;;;;63.00;54.35;;;34.70;56.40;;;;;;1942126;73;21202;-88
2023/04/07 05:23:21;;;;;;;59.33;52.00;;;34.80;57.80;;;;;;1931436;73;21079;-88
2023/04/07 05:25:52;;;;;;;58.05;51.30;;;34.90;58.40;;;;;;1937487;73;21123;-89
2023/04/07 05:28:28;;;;;;;59.63;53.00;;;35.00;57.70;;;;;;1899039;74;21180;-86
2023/04/07 05:30:56;;;;;;;59.38;53.08;;;35.10;57.30;;;;;;1938578;73;21813;-88
2023/04/07 05:33:27;;;;;;;63.78;53.60;;;35.20;57.00;;;;;;1930470;73;21902;-86
2023/04/07 05:35:58;;;;;;;60.38;51.18;;;35.20;56.10;;;;;;1941249;73;21136;-88
2023/04/07 05:38:32;;;;;;;62.00;55.03;;;35.30;56.70;;;;;;1930702;73;21108;-88
2023/04/07 05:41:04;;;;;;;59.93;53.63;;;35.40;56.20;;;;;;1929985;73;21693;-87
2023/04/07 05:43:36;;;;;;;61.45;54.83;;;35.50;55.70;;;;;;1930068;73;21140;-88
2023/04/07 05:46:08;;;;;;;60.55;52.78;;;35.60;55.50;;;;;;1922964;74;21115;-86
2023/04/07 05:48:40;;;;;;;60.45;53.98;;;35.70;55.30;;;;;;1922911;74;21121;-87
2023/04/07 05:51:12;;;;;;;64.40;53.33;;;35.80;55.10;;;;;;1932173;73;21182;-88
2023/04/07 05:53:44;;;;;;;58.08;52.03;;;35.90;55.00;;;;;;1949625;73;21093;-88
2023/04/07 05:56:15;;;;;;;61.65;54.48;;;36.00;54.80;;;;;;1959478;73;21136;-87
2023/04/07 05:58:47;;;;;;;61.48;54.45;;;36.00;54.80;;;;;;1959803;73;21116;-88
2023/04/07 06:01:18;;;;;;;58.68;51.80;;;36.10;54.80;;;;;;1931957;73;21661;-87
2023/04/07 06:03:50;;;;;;;56.98;50.45;;;36.20;54.60;;;;;;1943330;73;21101;-88
2023/04/07 06:06:21;;;;;;;65.78;53.83;;;36.10;54.80;;;;;;1938351;73;21214;-89
2023/04/07 06:08:52;;;;;;;60.08;53.58;;;36.20;54.30;;;;;;1925318;74;21152;-88
2023/04/07 06:11:23;;;;;;;58.73;52.53;;;36.20;53.10;;;;;;1927693;73;21180;-88
2023/04/07 06:13:56;;;;;;;55.70;50.05;;;36.30;53.20;;;;;;1921614;73;21121;-88
2023/04/07 06:16:31;;;;;;;54.90;48.95;;;36.40;53.60;;;;;;1860473;75;21091;-88
2023/04/07 06:19:03;;;;;;;56.55;50.60;;;36.40;53.40;;;;;;1882982;74;21138;-88
2023/04/07 06:21:39;;;;;;;59.93;50.43;;;36.40;53.90;;;;;;1880067;74;21158;-87
2023/04/07 06:24:12;;;;;;;53.13;47.45;;;36.30;63.90;;;;;;1870088;74;21076;-88
2023/04/07 06:26:45;;;;;;;54.30;48.45;;;36.50;59.90;;;;;;1954451;72;21628;-87
2023/04/07 06:29:16;;;;;;;57.60;46.33;;;36.60;55.10;;;;;;1959788;72;21906;-87
2023/04/07 06:31:47;;;;;;;57.00;47.78;;;36.60;56.80;;;;;;1949443;73;21632;-86
2023/04/07 06:34:18;;;;;;;55.65;46.28;;;36.60;59.90;;;;;;1959934;73;21115;-87
2023/04/07 06:37:07;;;;;;;52.95;47.40;;;36.40;56.00;;;;;;1964444;72;21173;-86
2023/04/07 06:39:39;;;;;;;54.58;48.63;;;36.50;55.30;;;;;;1969570;72;21134;-85
2023/04/07 06:42:10;;;;;;;53.92;48.15;;;36.60;55.20;;;;;;1965349;72;21176;-86
2023/04/07 06:44:41;;;;;;;60.92;47.00;;;36.60;62.10;;;;;;1967685;71;21159;-87
2023/04/07 06:47:13;;;;;;;55.50;49.75;;;36.70;59.90;;;;;;1967517;72;21108;-87
2023/04/07 06:49:44;;;;;;;59.65;52.55;;;36.70;68.50;;;;;;1962984;71;21146;-86
2023/04/07 06:52:25;;;;;;;59.35;49.75;;;36.80;58.80;;;;;;1967252;72;21136;-87
2023/04/07 06:55:00;;;;;;;57.43;49.30;;;36.70;56.70;;;;;;1967271;72;21158;-89
2023/04/07 06:57:33;;;;;;;55.12;49.30;;;36.60;57.50;;;;;;1961602;71;21205;-88
2023/04/07 07:00:09;;;;;;;55.45;49.35;;;36.60;58.30;;;;;;1964640;72;21105;-86
2023/04/07 07:02:41;;;;;;;56.48;48.65;;;36.50;57.70;;;;;;1973058;72;21535;-86
2023/04/07 07:05:13;;;;;;;57.35;49.70;;;36.50;58.60;;;;;;1971587;71;21039;-86
2023/04/07 07:07:44;;;;;;;57.33;47.58;;;36.50;58.80;;;;;;1965997;71;21057;-87
2023/04/07 07:10:19;;;;;;;53.42;47.75;;;36.50;60.00;;;;;;1964078;71;21519;-87
2023/04/07 07:12:51;;;;;;;57.35;51.15;;;36.40;58.00;;;;;;1966746;72;21071;-88
2023/04/07 07:15:25;;;;;;;56.02;47.75;;;36.40;57.90;;;;;;1966224;72;21222;-87
2023/04/07 07:17:57;;;;;;;55.17;49.13;;;36.40;58.50;;;;;;1969156;72;21086;-87
2023/04/07 07:20:30;;;;;;;55.15;48.63;;;36.50;58.20;;;;;;1965016;71;21106;-87
2023/04/07 07:23:01;;;;;;;53.08;47.62;;;36.50;57.70;;;;;;1958644;72;21210;-87
2023/04/07 07:25:32;;;;;;;53.87;48.13;;;36.50;58.90;;;;;;1963520;71;21075;-88
2023/04/07 07:28:04;;;;;;;57.95;48.38;;;36.50;61.10;;;;;;1926851;73;21060;-87
2023/04/07 07:30:35;;;;;;;55.52;47.83;;;36.60;61.70;;;;;;1902673;74;21091;-86
2023/04/07 07:33:06;;;;;;;55.45;47.73;;;36.50;58.20;;;;;;1955266;73;21116;-85
2023/04/07 07:35:38;;;;;;;57.13;47.73;;;36.40;58.40;;;;;;1924824;73;21192;-86
2023/04/07 07:38:12;;;;;;;52.88;47.17;;;36.40;57.10;;;;;;1907822;74;21771;-85
2023/04/07 07:40:45;;;;;;;52.13;46.35;;;36.30;56.90;;;;;;1925885;73;21635;-85
2023/04/07 07:43:16;;;;;;;51.55;45.83;;;36.30;56.30;;;;;;1918441;73;21120;-86
2023/04/07 07:45:48;;;;;;;51.25;45.75;;;36.30;55.40;;;;;;1927478;73;21080;-86
2023/04/07 07:48:19;;;;;;;51.58;45.92;;;36.30;55.50;;;;;;1940951;73;21152;-84
2023/04/07 07:50:51;;;;;;;51.83;44.23;;;36.30;56.00;;;;;;1872283;75;21146;-86
2023/04/07 07:53:22;;;;;;;53.33;47.62;;;36.30;56.20;;;;;;1937109;73;21127;-85
2023/04/07 07:55:54;;;;;;;53.70;46.08;;;36.30;56.50;;;;;;1927725;73;21075;-86
2023/04/07 07:58:26;;;;;;;51.65;45.58;;;36.40;56.40;;;;;;1896596;75;21606;-86
2023/04/07 08:00:57;;;;;;;52.08;46.80;;;36.40;56.90;;;;;;1894184;74;21147;-87
2023/04/07 08:03:28;;;;;;;56.23;47.78;;;36.50;57.10;;;;;;1936065;73;21128;-86
2023/04/07 08:06:00;;;;;;;52.83;46.20;;;36.50;57.00;;;;;;1935376;73;21136;-85
2023/04/07 08:08:31;;;;;;;52.62;47.10;;;36.40;57.30;;;;;;1925785;73;21203;-84
2023/04/07 08:11:02;;;;;;;53.48;47.98;;;36.40;57.60;;;;;;1935172;73;21100;-86
2023/04/07 08:13:33;;;;;;;49.93;44.33;;;36.30;57.50;;;;;;1943192;73;21143;-83
2023/04/07 08:16:05;;;;;;;51.13;45.60;;;36.20;57.30;;;;;;1879118;74;21156;-85
2023/04/07 08:18:37;;;;;;;50.80;44.83;;;36.20;57.70;;;;;;1935186;73;21143;-85
2023/04/07 08:21:08;;;;;;;49.83;44.23;;;36.10;57.70;;;;;;1922905;74;21174;-85
2023/04/07 08:23:59;;;;;;;48.48;43.15;;;36.20;57.90;;;;;;1911150;74;21178;-85
2023/04/07 08:26:31;;;;;;;48.80;43.52;;;36.10;57.50;;;;;;1929980;73;21136;-86
2023/04/07 08:29:02;;;;;;;51.70;44.55;;;36.20;57.50;;;;;;1924917;73;21096;-83
2023/04/07 08:31:33;;;;;;;50.20;44.03;;;36.10;57.60;;;;;;1901885;74;21633;-85
2023/04/07 08:34:04;;;;;;;47.78;41.58;;;36.20;57.40;;;;;;1911109;75;21233;-85
2023/04/07 08:36:35;;;;;;;48.78;43.52;;;36.30;56.80;;;;;;1893558;74;21139;-84
2023/04/07 08:39:07;;;;;;;47.40;42.35;;;36.20;56.70;;;;;;1904867;74;21742;-84
2023/04/07 08:41:39;;;;;;;48.68;42.45;;;36.30;56.70;;;;;;1923064;73;21566;-86
2023/04/07 08:44:12;;;;;;;47.10;42.00;;;36.30;56.30;;;;;;1925435;74;21191;-85
2023/04/07 08:46:44;;;;;;;48.35;43.28;;;36.30;56.10;;;;;;1879028;76;21285;-85
2023/04/07 08:49:17;;;;;;;47.20;42.38;;;36.30;55.80;;;;;;1874797;76;21291;-86
2023/04/07 08:51:49;;;;;;;49.18;44.03;;;36.30;55.60;;;;;;1965714;72;21116;-86
2023/04/07 08:54:21;;;;;;;49.03;42.93;;;36.30;55.40;;;;;;1898649;74;21168;-86
2023/04/07 08:56:53;;;;;;;52.17;47.00;;;36.30;55.90;;;;;;1931836;73;21128;-86
2023/04/07 08:59:28;;;;;;;48.38;42.83;;;36.30;55.90;;;;;;1922379;73;21079;-86
2023/04/07 09:01:59;;;;;;;50.80;45.25;;;36.30;56.00;;;;;;1931316;71;21170;-86
2023/04/07 09:04:30;;;;;;;52.45;46.92;;;36.20;56.00;;;;;;1956126;71;21879;-86
2023/04/07 09:07:01;;;;;;;50.58;45.20;;;36.20;55.90;;;;;;1947416;72;21156;-86
2023/04/07 09:09:48;;;;;;;50.78;43.98;;;36.20;56.00;;;;;;1961315;72;21097;-85
2023/04/07 09:12:40;;;;;;;50.52;45.25;;;36.20;55.90;;;;;;1957455;72;21261;-87
2023/04/07 09:15:50;;;;;;;51.00;45.50;;;36.20;56.20;;;;;;1795909;78;21310;-85
2023/04/07 09:18:39;;;;;;;50.75;45.30;;;36.20;55.70;;;;;;1744316;82;21184;-86
2023/04/07 09:25:51;;;;;;;;;;;;;;;;;;;;;
2023/04/07 09:28:31;;;;;;;47.70;42.67;;;36.20;56.30;;;;;;1707630;82;21097;-86
2023/04/07 09:42:25;;;;;;;45.75;40.90;;;36.20;56.20;;;;;;1934534;73;22608;-86
2023/04/07 09:48:34;;;;;;;;;;;;;;;;;;;;;
2023/04/07 09:52:30;;;;;;;;;;;;;;;;;;;;;
2023/04/07 09:58:39;;;;;;;;;;;;;;;;;;;;;
2023/04/07 10:01:36;;;;;;;41.48;37.23;;;35.80;57.10;;;;;;1849172;76;21167;-85
2023/04/07 10:04:29;;;;;;;;;;;;;;;;;;;;;
2023/04/07 10:08:01;;;;;;;;;;;;;;;;;;;;;
2023/04/07 10:10:13;;;;;;;41.70;37.35;;;35.70;58.30;;;;;;1796701;76;21082;-87
2023/04/07 10:12:52;;;;;;;41.05;36.93;;;35.70;57.50;;;;;;1848309;76;21401;-84
2023/04/07 10:15:36;;;;;;;;;;;;;;;;;;;;;
2023/04/07 10:18:21;;;;;;;;;;;;;;;;;;;;;
2023/04/07 10:21:06;;;;;;;;;;;;;;;;;;;;;
2023/04/07 10:24:18;;;;;;;;;;;;;;;;;;;;;
2023/04/07 10:27:10;;;;;;;41.10;36.70;;;35.60;58.50;;;;;;1835945;77;21119;-87
2023/04/07 10:29:51;;;;;;;40.10;35.95;;;35.60;58.80;;;;;;1838658;77;21212;-87
2023/04/07 10:32:40;;;;;;;42.38;37.67;;;35.60;59.30;;;;;;1813655;77;21111;-88
2023/04/07 10:35:17;;;;;;;43.15;37.55;;;35.50;59.30;;;;;;1818086;77;21162;-87
2023/04/07 10:38:15;;;;;;;44.25;36.55;;;35.50;59.60;;;;;;1845343;73;21150;-87
2023/04/07 10:40:51;;;;;;;41.58;37.05;;;35.50;59.70;;;;;;1927733;73;21202;-88
2023/04/07 10:43:47;;;;;;;42.27;37.95;;;35.50;61.30;;;;;;1914232;73;21139;-89
2023/04/07 11:08:10;;;;;;;41.50;36.90;;;35.30;60.80;;;;;;1942339;72;22148;-87
2023/04/07 11:10:55;;;;;;;42.13;37.63;;;35.10;61.20;;;;;;1901718;73;21182;-89
2023/04/07 11:13:31;;;;;;;43.70;39.03;;;35.00;61.70;;;;;;1901855;73;21154;-89
2023/04/07 11:16:02;;;;;;;42.50;38.00;;;35.00;62.00;;;;;;1879445;75;21084;-89
2023/04/07 11:18:33;;;;;;;42.55;37.88;;;35.00;62.20;;;;;;1831443;76;21175;-90
2023/04/07 11:21:05;;;;;;;43.30;37.73;;;35.00;61.80;;;;;;1861668;75;21167;-89
2023/04/07 11:23:41;;;;;;;44.10;39.25;;;35.00;62.60;;;;;;1858270;76;21180;-89
2023/04/07 11:26:14;;;;;;;47.23;40.50;;;34.90;62.60;;;;;;1899581;74;21191;-88
2023/04/07 11:28:51;;;;;;;46.30;40.45;;;34.90;63.00;;;;;;1919527;73;21111;-90
2023/04/07 11:31:26;;;;;;;49.15;40.48;;;34.80;63.00;;;;;;1902243;73;21155;-88
2023/04/07 11:33:59;;;;;;;50.70;42.33;;;34.70;63.00;;;;;;1882300;76;21131;-89
2023/04/07 11:36:36;;;;;;;47.80;42.27;;;34.70;63.00;;;;;;1906952;73;21148;-90
2023/04/07 11:39:09;;;;;;;48.00;42.23;;;34.70;63.40;;;;;;1902151;73;21203;-87
2023/04/07 11:41:50;;;;;;;56.15;45.83;;;34.60;63.60;;;;;;1910753;74;21104;-89
2023/04/07 11:44:21;;;;;;;50.48;44.98;;;34.60;64.20;;;;;;1900838;74;21225;-88
2023/04/07 11:47:00;;;;;;;48.28;43.05;;;34.50;64.80;;;;;;1919386;73;21150;-87
2023/04/07 11:49:32;;;;;;;51.77;43.87;;;34.50;64.90;;;;;;1902404;73;21282;-87
2023/04/07 11:52:09;;;;;;;51.05;42.65;;;34.50;65.20;;;;;;1913736;73;21095;-86
2023/04/07 11:54:52;;;;;;;60.30;43.92;;;34.50;65.30;;;;;;1927533;73;21131;-87
2023/04/07 11:57:27;;;;;;;50.38;43.98;;;34.40;64.60;;;;;;1919471;71;21064;-87
2023/04/07 12:00:08;;;;;;;53.52;44.05;;;34.40;64.70;;;;;;1878134;75;21178;-87
2023/04/07 12:02:40;;;;;;;51.68;44.20;;;34.40;65.10;;;;;;1913117;73;21167;-88
2023/04/07 12:05:12;;;;;;;49.38;43.98;;;34.30;65.60;;;;;;1905431;73;21155;-88
2023/04/07 12:07:46;;;;;;;48.78;43.60;;;34.30;65.50;;;;;;1921298;73;21107;-88
2023/04/07 12:10:28;;;;;;;52.43;46.18;;;34.30;65.80;;;;;;1873861;76;21115;-88
2023/04/07 12:12:56;;;;;;;55.30;46.65;;;34.20;65.90;;;;;;1911987;74;21626;-87
2023/04/07 12:15:28;;;;;;;60.38;48.90;;;34.20;66.00;;;;;;1905699;74;21191;-88
2023/04/07 12:17:59;;;;;;;55.48;46.92;;;34.20;66.40;;;;;;1911550;73;21063;-88
2023/04/07 12:20:31;;;;;;;61.33;49.55;;;34.10;66.10;;;;;;1905933;73;21183;-87
2023/04/07 12:23:04;;;;;;;55.55;47.43;;;34.10;66.60;;;;;;1911479;73;21212;-88
2023/04/07 12:25:35;;;;;;;52.45;46.83;;;34.10;66.90;;;;;;1917849;73;21178;-87
2023/04/07 12:28:06;;;;;;;53.80;44.98;;;34.00;66.30;;;;;;1914070;73;21217;-87
2023/04/07 12:30:39;;;;;;;51.20;43.00;;;34.00;66.10;;;;;;1912825;73;21114;-87
2023/04/07 12:33:13;;;;;;;49.65;40.23;;;34.00;66.20;;;;;;1878758;74;21602;-86
2023/04/07 12:35:44;;;;;;;43.20;38.40;;;34.00;65.60;;;;;;1913260;73;21544;-87
2023/04/07 12:38:16;;;;;;;46.55;38.05;;;34.00;65.30;;;;;;1909373;73;21197;-87
2023/04/07 12:40:47;;;;;;;44.63;37.73;;;34.00;65.40;;;;;;1903088;73;21205;-89
2023/04/07 12:43:18;;;;;;;43.73;37.58;;;34.00;65.00;;;;;;1904468;73;21151;-88
2023/04/07 12:45:49;;;;;;;46.55;36.55;;;34.00;64.80;;;;;;1899477;73;21722;-89
2023/04/07 12:48:20;;;;;;;45.00;35.20;;;34.00;64.80;;;;;;1899387;73;21172;-89
2023/04/07 12:50:51;;;;;;;43.00;35.95;;;34.10;64.80;;;;;;1909647;73;21190;-88
2023/04/07 12:53:22;;;;;;;42.95;34.92;;;34.10;64.50;;;;;;1910152;73;21177;-89
2023/04/07 12:55:53;;;;;;;43.83;34.90;;;34.10;64.60;;;;;;1912472;73;21631;-88
2023/04/07 12:58:39;;;;;;;39.83;34.83;;;34.10;63.80;;;;;;1913242;73;21274;-88
2023/04/07 13:01:12;;;;;;;42.80;35.80;;;34.10;63.90;;;;;;1912253;73;21220;-89
2023/04/07 13:03:44;;;;;;;40.38;36.25;;;34.10;63.70;;;;;;1898233;73;22005;-88
2023/04/07 13:06:16;;;;;;;45.28;36.23;;;34.10;63.40;;;;;;1895997;73;21144;-88
2023/04/07 13:08:47;;;;;;;40.90;36.38;;;34.10;63.70;;;;;;1902108;73;21094;-89
2023/04/07 13:11:18;;;;;;;41.18;36.60;;;34.10;63.60;;;;;;1885144;73;21105;-89
2023/04/07 13:13:49;;;;;;;41.53;35.92;;;34.10;63.40;;;;;;1914230;73;21119;-89
2023/04/07 13:16:21;;;;;;;48.10;36.35;;;34.00;63.20;;;;;;1914295;73;21202;-90
2023/04/07 13:18:52;;;;;;;40.17;35.00;;;34.00;63.20;;;;;;1856134;75;21235;-87
2023/04/07 13:21:24;;;;;;;43.23;37.00;;;34.00;63.30;;;;;;1910275;73;21116;-88
2023/04/07 13:23:56;;;;;;;40.25;35.63;;;34.00;63.40;;;;;;1917950;73;21127;-89
2023/04/07 13:26:27;;;;;;;41.18;36.30;;;34.00;63.50;;;;;;1920514;73;21080;-87
2023/04/07 13:28:59;;;;;;;42.38;35.80;;;34.00;63.50;;;;;;1913975;73;21170;-88
2023/04/07 13:31:30;;;;;;;41.20;36.23;;;34.00;63.40;;;;;;1919797;73;21578;-89
2023/04/07 13:34:01;;;;;;;39.58;34.38;;;34.00;63.50;;;;;;1898438;73;21181;-88
2023/04/07 13:36:32;;;;;;;39.98;35.15;;;33.90;63.40;;;;;;1904008;73;21215;-88
2023/04/07 13:39:03;;;;;;;42.35;35.63;;;33.90;63.20;;;;;;1912925;73;21179;-88
2023/04/07 13:41:36;;;;;;;42.33;35.68;;;33.90;63.50;;;;;;1887284;73;21160;-88
2023/04/07 13:44:21;;;;;;;40.00;35.73;;;33.90;63.80;;;;;;1918438;73;21233;-87
2023/04/07 13:46:55;;;;;;;38.85;34.73;;;33.90;63.70;;;;;;1907313;73;21067;-87
2023/04/07 13:49:26;;;;;;;40.95;33.58;;;33.90;63.90;;;;;;1862746;74;21160;-88
2023/04/07 13:51:58;;;;;;;44.27;37.60;;;33.80;63.90;;;;;;1912047;73;21589;-88
2023/04/07 13:54:29;;;;;;;39.48;34.78;;;33.80;63.90;;;;;;1930857;73;21096;-89
2023/04/07 13:57:01;;;;;;;43.73;34.50;;;33.80;64.00;;;;;;1869861;76;21666;-88
2023/04/07 13:59:32;;;;;;;41.73;34.30;;;33.70;64.00;;;;;;1856267;75;21166;-88
2023/04/07 14:02:03;;;;;;;40.85;34.50;;;33.80;63.90;;;;;;1901439;73;21156;-90
2023/04/07 14:04:34;;;;;;;41.70;33.63;;;33.70;64.30;;;;;;1913384;73;21241;-88